sensor_id;sensor_type;location;lat;lon;timestamp;temperature;humidity
21627;DHT22;10975;47.872;12.972;2022-08-21T00:01:33;17.80;99.90
21627;DHT22;10975;47.872;12.972;2022-08-21T00:04:05;17.70;99.90
21627;DHT22;10975;47.872;12.972;2022-08-21T00:06:32;17.70;99.90
21627;DHT22;10975;47.872;12.972;2022-08-21T00:09:00;17.70;99.90
21627;DHT22;10975;47.872;12.972;2022-08-21T00:11:32;17.70;99.90
21627;DHT22;10975;47.872;12.972;2022-08-21T00:13:59;17.80;99.90
21627;DHT22;10975;47.872;12.972;2022-08-21T00:16:26;17.80;99.90
21627;DHT22;10975;47.872;12.972;2022-08-21T00:18:53;17.80;99.90
21627;DHT22;10975;47.872;12.972;2022-08-21T00:21:20;17.70;99.90
21627;DHT22;10975;47.872;12.972;2022-08-21T00:23:48;17.70;99.90
21627;DHT22;10975;47.872;12.972;2022-08-21T00:26:15;17.70;99.90
21627;DHT22;10975;47.872;12.972;2022-08-21T00:28:42;17.80;99.90
21627;DHT22;10975;47.872;12.972;2022-08-21T00:31:10;17.70;99.90
21627;DHT22;10975;47.872;12.972;2022-08-21T00:33:37;17.70;99.90
21627;DHT22;10975;47.872;12.972;2022-08-21T00:36:04;17.70;99.90
21627;DHT22;10975;47.872;12.972;2022-08-21T00:38:31;17.70;99.90
21627;DHT22;10975;47.872;12.972;2022-08-21T00:40:58;17.70;99.90
21627;DHT22;10975;47.872;12.972;2022-08-21T00:43:30;17.70;99.90
21627;DHT22;10975;47.872;12.972;2022-08-21T00:45:57;17.70;99.90
21627;DHT22;10975;47.872;12.972;2022-08-21T00:48:24;17.70;99.90
21627;DHT22;10975;47.872;12.972;2022-08-21T00:53:30;17.80;99.90
21627;DHT22;10975;47.872;12.972;2022-08-21T00:55:57;17.70;99.90
21627;DHT22;10975;47.872;12.972;2022-08-21T00:58:26;17.70;99.90
21627;DHT22;10975;47.872;12.972;2022-08-21T01:00:53;17.70;99.90
21627;DHT22;10975;47.872;12.972;2022-08-21T01:03:22;17.70;99.90
21627;DHT22;10975;47.872;12.972;2022-08-21T01:05:49;17.70;99.90
21627;DHT22;10975;47.872;12.972;2022-08-21T01:08:17;17.70;99.90
21627;DHT22;10975;47.872;12.972;2022-08-21T01:10:44;17.70;99.90
21627;DHT22;10975;47.872;12.972;2022-08-21T01:13:18;17.70;99.90
21627;DHT22;10975;47.872;12.972;2022-08-21T01:15:46;17.70;99.90
21627;DHT22;10975;47.872;12.972;2022-08-21T01:18:15;17.70;99.90
21627;DHT22;10975;47.872;12.972;2022-08-21T01:20:44;17.60;99.90
21627;DHT22;10975;47.872;12.972;2022-08-21T01:23:11;17.60;99.90
21627;DHT22;10975;47.872;12.972;2022-08-21T01:25:38;17.60;99.90
21627;DHT22;10975;47.872;12.972;2022-08-21T01:28:07;17.60;99.90
21627;DHT22;10975;47.872;12.972;2022-08-21T01:30:35;17.60;99.90
21627;DHT22;10975;47.872;12.972;2022-08-21T01:33:06;17.60;99.90
21627;DHT22;10975;47.872;12.972;2022-08-21T01:35:33;17.70;99.90
21627;DHT22;10975;47.872;12.972;2022-08-21T01:38:00;17.70;99.90
21627;DHT22;10975;47.872;12.972;2022-08-21T01:40:27;17.60;99.90
21627;DHT22;10975;47.872;12.972;2022-08-21T01:42:54;17.70;99.90
21627;DHT22;10975;47.872;12.972;2022-08-21T01:45:21;17.70;99.90
21627;DHT22;10975;47.872;12.972;2022-08-21T01:47:47;17.70;99.90
21627;DHT22;10975;47.872;12.972;2022-08-21T01:50:15;17.50;99.90
21627;DHT22;10975;47.872;12.972;2022-08-21T01:52:42;17.60;99.90
21627;DHT22;10975;47.872;12.972;2022-08-21T01:55:10;17.60;99.90
21627;DHT22;10975;47.872;12.972;2022-08-21T01:57:37;17.60;99.90
21627;DHT22;10975;47.872;12.972;2022-08-21T02:00:07;17.60;99.90
21627;DHT22;10975;47.872;12.972;2022-08-21T02:02:35;17.60;99.90
21627;DHT22;10975;47.872;12.972;2022-08-21T02:05:02;17.70;99.90
21627;DHT22;10975;47.872;12.972;2022-08-21T02:07:40;17.60;99.90
21627;DHT22;10975;47.872;12.972;2022-08-21T02:10:09;17.50;99.90
21627;DHT22;10975;47.872;12.972;2022-08-21T02:12:36;17.40;99.90
21627;DHT22;10975;47.872;12.972;2022-08-21T02:15:03;17.50;99.90
21627;DHT22;10975;47.872;12.972;2022-08-21T02:17:48;17.50;99.90
21627;DHT22;10975;47.872;12.972;2022-08-21T02:20:17;17.50;99.90
21627;DHT22;10975;47.872;12.972;2022-08-21T02:22:44;17.50;99.90
21627;DHT22;10975;47.872;12.972;2022-08-21T02:25:11;17.50;99.90
21627;DHT22;10975;47.872;12.972;2022-08-21T02:27:39;17.50;99.90
21627;DHT22;10975;47.872;12.972;2022-08-21T02:30:07;17.60;99.90
21627;DHT22;10975;47.872;12.972;2022-08-21T02:32:34;17.60;99.90
21627;DHT22;10975;47.872;12.972;2022-08-21T02:35:01;17.60;99.90
21627;DHT22;10975;47.872;12.972;2022-08-21T02:37:28;17.60;99.90
21627;DHT22;10975;47.872;12.972;2022-08-21T02:39:54;17.70;99.90
21627;DHT22;10975;47.872;12.972;2022-08-21T02:42:21;17.70;99.90
21627;DHT22;10975;47.872;12.972;2022-08-21T02:44:48;17.70;99.90
21627;DHT22;10975;47.872;12.972;2022-08-21T02:47:15;17.70;99.90
21627;DHT22;10975;47.872;12.972;2022-08-21T02:49:41;17.70;99.90
21627;DHT22;10975;47.872;12.972;2022-08-21T02:52:08;17.70;99.90
21627;DHT22;10975;47.872;12.972;2022-08-21T02:54:35;17.70;99.90
21627;DHT22;10975;47.872;12.972;2022-08-21T02:57:02;17.70;99.90
21627;DHT22;10975;47.872;12.972;2022-08-21T02:59:29;17.80;99.90
21627;DHT22;10975;47.872;12.972;2022-08-21T03:01:55;17.80;99.90
21627;DHT22;10975;47.872;12.972;2022-08-21T03:04:22;17.70;99.90
21627;DHT22;10975;47.872;12.972;2022-08-21T03:06:49;17.80;99.90
21627;DHT22;10975;47.872;12.972;2022-08-21T03:09:16;17.80;99.90
21627;DHT22;10975;47.872;12.972;2022-08-21T03:11:42;17.80;99.90
21627;DHT22;10975;47.872;12.972;2022-08-21T03:14:10;17.80;99.90
21627;DHT22;10975;47.872;12.972;2022-08-21T03:16:37;17.80;99.90
21627;DHT22;10975;47.872;12.972;2022-08-21T03:19:03;17.80;99.90
21627;DHT22;10975;47.872;12.972;2022-08-21T03:21:31;17.70;99.90
21627;DHT22;10975;47.872;12.972;2022-08-21T03:23:57;17.70;99.90
21627;DHT22;10975;47.872;12.972;2022-08-21T03:26:28;17.70;99.90
21627;DHT22;10975;47.872;12.972;2022-08-21T03:28:56;17.70;99.90
21627;DHT22;10975;47.872;12.972;2022-08-21T03:31:24;17.70;99.90
21627;DHT22;10975;47.872;12.972;2022-08-21T03:33:55;17.70;99.90
21627;DHT22;10975;47.872;12.972;2022-08-21T03:36:21;17.70;99.90
21627;DHT22;10975;47.872;12.972;2022-08-21T03:38:48;17.70;99.90
21627;DHT22;10975;47.872;12.972;2022-08-21T03:41:15;17.70;99.90
21627;DHT22;10975;47.872;12.972;2022-08-21T03:43:42;17.70;99.90
21627;DHT22;10975;47.872;12.972;2022-08-21T03:46:09;17.70;99.90
21627;DHT22;10975;47.872;12.972;2022-08-21T03:48:38;17.70;99.90
21627;DHT22;10975;47.872;12.972;2022-08-21T03:51:05;17.70;99.90
21627;DHT22;10975;47.872;12.972;2022-08-21T03:53:33;17.70;99.90
21627;DHT22;10975;47.872;12.972;2022-08-21T03:56:00;17.70;99.90
21627;DHT22;10975;47.872;12.972;2022-08-21T03:58:27;17.70;99.90
21627;DHT22;10975;47.872;12.972;2022-08-21T04:00:56;17.70;99.90
21627;DHT22;10975;47.872;12.972;2022-08-21T04:03:23;17.70;99.90
21627;DHT22;10975;47.872;12.972;2022-08-21T04:05:50;17.70;99.90
21627;DHT22;10975;47.872;12.972;2022-08-21T04:08:16;17.70;99.90
21627;DHT22;10975;47.872;12.972;2022-08-21T04:10:47;17.70;99.90
21627;DHT22;10975;47.872;12.972;2022-08-21T04:13:14;17.70;99.90
21627;DHT22;10975;47.872;12.972;2022-08-21T04:15:41;17.70;99.90
21627;DHT22;10975;47.872;12.972;2022-08-21T04:18:08;17.70;99.90
21627;DHT22;10975;47.872;12.972;2022-08-21T04:20:36;17.70;99.90
21627;DHT22;10975;47.872;12.972;2022-08-21T04:23:03;17.70;99.90
21627;DHT22;10975;47.872;12.972;2022-08-21T04:25:30;17.70;99.90
21627;DHT22;10975;47.872;12.972;2022-08-21T04:27:56;17.70;99.90
21627;DHT22;10975;47.872;12.972;2022-08-21T04:30:23;17.70;99.90
21627;DHT22;10975;47.872;12.972;2022-08-21T04:32:54;17.70;99.90
21627;DHT22;10975;47.872;12.972;2022-08-21T04:35:22;17.70;99.90
21627;DHT22;10975;47.872;12.972;2022-08-21T04:37:49;17.70;99.90
21627;DHT22;10975;47.872;12.972;2022-08-21T04:40:17;17.70;99.90
21627;DHT22;10975;47.872;12.972;2022-08-21T04:42:48;17.70;99.90
21627;DHT22;10975;47.872;12.972;2022-08-21T04:45:21;17.70;99.90
21627;DHT22;10975;47.872;12.972;2022-08-21T04:47:49;17.80;99.90
21627;DHT22;10975;47.872;12.972;2022-08-21T04:50:19;17.80;99.90
21627;DHT22;10975;47.872;12.972;2022-08-21T04:52:47;17.80;99.90
21627;DHT22;10975;47.872;12.972;2022-08-21T04:55:15;17.80;99.90
21627;DHT22;10975;47.872;12.972;2022-08-21T04:57:42;17.80;99.90
21627;DHT22;10975;47.872;12.972;2022-08-21T05:00:15;17.80;99.90
21627;DHT22;10975;47.872;12.972;2022-08-21T05:02:45;17.80;99.90
21627;DHT22;10975;47.872;12.972;2022-08-21T05:05:14;17.80;99.90
21627;DHT22;10975;47.872;12.972;2022-08-21T05:07:41;17.80;99.90
21627;DHT22;10975;47.872;12.972;2022-08-21T05:10:09;17.80;99.90
21627;DHT22;10975;47.872;12.972;2022-08-21T05:12:38;17.80;99.90
21627;DHT22;10975;47.872;12.972;2022-08-21T05:15:05;17.90;99.90
21627;DHT22;10975;47.872;12.972;2022-08-21T05:17:38;17.90;99.90
21627;DHT22;10975;47.872;12.972;2022-08-21T05:20:05;17.90;99.90
21627;DHT22;10975;47.872;12.972;2022-08-21T05:22:34;17.90;99.90
21627;DHT22;10975;47.872;12.972;2022-08-21T05:25:00;18.00;99.90
21627;DHT22;10975;47.872;12.972;2022-08-21T05:27:27;18.10;99.90
21627;DHT22;10975;47.872;12.972;2022-08-21T05:29:58;18.10;99.90
21627;DHT22;10975;47.872;12.972;2022-08-21T05:32:24;18.20;99.90
21627;DHT22;10975;47.872;12.972;2022-08-21T05:34:51;18.20;99.90
21627;DHT22;10975;47.872;12.972;2022-08-21T05:37:18;18.20;99.90
21627;DHT22;10975;47.872;12.972;2022-08-21T05:39:45;18.20;99.90
21627;DHT22;10975;47.872;12.972;2022-08-21T05:42:31;18.20;99.90
21627;DHT22;10975;47.872;12.972;2022-08-21T05:44:58;18.20;99.90
21627;DHT22;10975;47.872;12.972;2022-08-21T05:47:26;18.30;99.90
21627;DHT22;10975;47.872;12.972;2022-08-21T05:49:52;18.40;99.90
21627;DHT22;10975;47.872;12.972;2022-08-21T05:52:20;18.40;99.90
21627;DHT22;10975;47.872;12.972;2022-08-21T05:54:47;18.50;99.90
21627;DHT22;10975;47.872;12.972;2022-08-21T05:57:13;18.60;99.90
21627;DHT22;10975;47.872;12.972;2022-08-21T05:59:40;18.60;99.90
21627;DHT22;10975;47.872;12.972;2022-08-21T06:02:07;18.60;99.90
21627;DHT22;10975;47.872;12.972;2022-08-21T06:04:38;18.70;99.90
21627;DHT22;10975;47.872;12.972;2022-08-21T06:07:05;18.70;99.90
21627;DHT22;10975;47.872;12.972;2022-08-21T06:09:32;18.70;99.90
21627;DHT22;10975;47.872;12.972;2022-08-21T06:12:03;18.80;99.90
21627;DHT22;10975;47.872;12.972;2022-08-21T06:14:30;18.70;99.90
21627;DHT22;10975;47.872;12.972;2022-08-21T06:17:07;18.70;99.90
21627;DHT22;10975;47.872;12.972;2022-08-21T06:19:34;18.70;99.90
21627;DHT22;10975;47.872;12.972;2022-08-21T06:22:01;18.70;99.90
21627;DHT22;10975;47.872;12.972;2022-08-21T06:24:28;18.70;99.90
21627;DHT22;10975;47.872;12.972;2022-08-21T06:26:55;18.70;99.90
21627;DHT22;10975;47.872;12.972;2022-08-21T06:29:22;18.60;99.90
21627;DHT22;10975;47.872;12.972;2022-08-21T06:31:49;18.60;99.90
21627;DHT22;10975;47.872;12.972;2022-08-21T06:34:17;18.60;99.90
21627;DHT22;10975;47.872;12.972;2022-08-21T06:36:44;18.70;99.90
21627;DHT22;10975;47.872;12.972;2022-08-21T06:39:11;18.70;99.90
21627;DHT22;10975;47.872;12.972;2022-08-21T06:41:56;18.70;99.90
21627;DHT22;10975;47.872;12.972;2022-08-21T06:44:23;18.80;99.90
21627;DHT22;10975;47.872;12.972;2022-08-21T06:46:49;18.80;99.90
21627;DHT22;10975;47.872;12.972;2022-08-21T06:49:16;18.90;99.90
21627;DHT22;10975;47.872;12.972;2022-08-21T06:51:47;19.00;99.90
21627;DHT22;10975;47.872;12.972;2022-08-21T06:54:13;19.00;99.90
21627;DHT22;10975;47.872;12.972;2022-08-21T06:56:40;19.00;99.90
21627;DHT22;10975;47.872;12.972;2022-08-21T06:59:07;19.10;99.90
21627;DHT22;10975;47.872;12.972;2022-08-21T07:01:34;19.10;99.90
21627;DHT22;10975;47.872;12.972;2022-08-21T07:04:01;19.10;99.90
21627;DHT22;10975;47.872;12.972;2022-08-21T07:06:27;19.10;99.90
21627;DHT22;10975;47.872;12.972;2022-08-21T07:08:59;19.20;99.90
21627;DHT22;10975;47.872;12.972;2022-08-21T07:11:27;19.30;99.90
21627;DHT22;10975;47.872;12.972;2022-08-21T07:13:54;19.40;99.90
21627;DHT22;10975;47.872;12.972;2022-08-21T07:16:23;19.60;99.90
21627;DHT22;10975;47.872;12.972;2022-08-21T07:18:49;19.70;99.90
21627;DHT22;10975;47.872;12.972;2022-08-21T07:21:16;19.70;99.90
21627;DHT22;10975;47.872;12.972;2022-08-21T07:23:47;19.70;99.90
21627;DHT22;10975;47.872;12.972;2022-08-21T07:26:16;19.80;99.90
21627;DHT22;10975;47.872;12.972;2022-08-21T07:28:43;19.80;99.90
21627;DHT22;10975;47.872;12.972;2022-08-21T07:31:10;19.90;99.90
21627;DHT22;10975;47.872;12.972;2022-08-21T07:33:40;20.00;99.90
21627;DHT22;10975;47.872;12.972;2022-08-21T07:36:07;20.00;99.90
21627;DHT22;10975;47.872;12.972;2022-08-21T07:38:34;20.20;99.90
21627;DHT22;10975;47.872;12.972;2022-08-21T07:41:01;20.30;99.90
21627;DHT22;10975;47.872;12.972;2022-08-21T07:43:29;20.50;99.90
21627;DHT22;10975;47.872;12.972;2022-08-21T07:45:55;20.30;99.90
21627;DHT22;10975;47.872;12.972;2022-08-21T07:48:23;20.20;99.90
21627;DHT22;10975;47.872;12.972;2022-08-21T07:50:50;20.30;99.90
21627;DHT22;10975;47.872;12.972;2022-08-21T07:53:17;20.40;99.90
21627;DHT22;10975;47.872;12.972;2022-08-21T07:55:44;20.50;99.90
21627;DHT22;10975;47.872;12.972;2022-08-21T07:58:11;20.40;99.90
21627;DHT22;10975;47.872;12.972;2022-08-21T08:00:37;20.50;99.90
21627;DHT22;10975;47.872;12.972;2022-08-21T08:03:04;20.60;99.90
21627;DHT22;10975;47.872;12.972;2022-08-21T08:05:31;20.70;99.90
21627;DHT22;10975;47.872;12.972;2022-08-21T08:07:58;20.90;99.90
21627;DHT22;10975;47.872;12.972;2022-08-21T08:10:25;21.10;99.90
21627;DHT22;10975;47.872;12.972;2022-08-21T08:12:52;21.30;99.90
21627;DHT22;10975;47.872;12.972;2022-08-21T08:15:22;21.30;99.90
21627;DHT22;10975;47.872;12.972;2022-08-21T08:17:50;21.30;99.90
21627;DHT22;10975;47.872;12.972;2022-08-21T08:20:17;21.30;99.90
21627;DHT22;10975;47.872;12.972;2022-08-21T08:22:45;21.20;99.90
21627;DHT22;10975;47.872;12.972;2022-08-21T08:25:16;21.20;99.90
21627;DHT22;10975;47.872;12.972;2022-08-21T08:27:43;21.10;99.90
21627;DHT22;10975;47.872;12.972;2022-08-21T08:30:11;21.30;99.90
21627;DHT22;10975;47.872;12.972;2022-08-21T08:32:38;21.30;99.90
21627;DHT22;10975;47.872;12.972;2022-08-21T08:35:06;21.30;99.90
21627;DHT22;10975;47.872;12.972;2022-08-21T08:37:33;21.30;99.90
21627;DHT22;10975;47.872;12.972;2022-08-21T08:40:00;21.30;99.90
21627;DHT22;10975;47.872;12.972;2022-08-21T08:42:32;21.40;99.90
21627;DHT22;10975;47.872;12.972;2022-08-21T08:45:03;21.30;99.90
21627;DHT22;10975;47.872;12.972;2022-08-21T08:47:31;21.40;99.90
21627;DHT22;10975;47.872;12.972;2022-08-21T08:52:36;21.50;99.90
21627;DHT22;10975;47.872;12.972;2022-08-21T08:57:30;21.70;99.90
21627;DHT22;10975;47.872;12.972;2022-08-21T09:00:00;21.70;99.90
21627;DHT22;10975;47.872;12.972;2022-08-21T09:02:28;21.80;99.90
21627;DHT22;10975;47.872;12.972;2022-08-21T09:04:55;21.80;99.90
21627;DHT22;10975;47.872;12.972;2022-08-21T09:07:25;21.80;99.90
21627;DHT22;10975;47.872;12.972;2022-08-21T09:22:48;22.20;99.90
21627;DHT22;10975;47.872;12.972;2022-08-21T09:25:24;22.20;99.90
21627;DHT22;10975;47.872;12.972;2022-08-21T09:27:52;22.20;99.90
21627;DHT22;10975;47.872;12.972;2022-08-21T09:30:19;22.40;99.90
21627;DHT22;10975;47.872;12.972;2022-08-21T09:32:50;22.50;99.90
21627;DHT22;10975;47.872;12.972;2022-08-21T09:35:17;22.70;99.90
21627;DHT22;10975;47.872;12.972;2022-08-21T09:37:48;22.60;99.90
21627;DHT22;10975;47.872;12.972;2022-08-21T09:40:17;22.50;99.90
21627;DHT22;10975;47.872;12.972;2022-08-21T09:42:52;22.50;99.90
21627;DHT22;10975;47.872;12.972;2022-08-21T09:45:20;22.80;99.90
21627;DHT22;10975;47.872;12.972;2022-08-21T09:47:46;22.80;99.90
21627;DHT22;10975;47.872;12.972;2022-08-21T09:50:18;22.70;99.90
21627;DHT22;10975;47.872;12.972;2022-08-21T09:52:50;22.80;99.90
21627;DHT22;10975;47.872;12.972;2022-08-21T09:55:20;22.90;99.90
21627;DHT22;10975;47.872;12.972;2022-08-21T09:58:14;22.90;99.90
21627;DHT22;10975;47.872;12.972;2022-08-21T10:00:41;22.70;99.90
21627;DHT22;10975;47.872;12.972;2022-08-21T10:05:38;23.00;99.90
21627;DHT22;10975;47.872;12.972;2022-08-21T10:08:15;22.70;99.90
21627;DHT22;10975;47.872;12.972;2022-08-21T10:10:42;23.00;99.90
21627;DHT22;10975;47.872;12.972;2022-08-21T10:21:12;23.10;99.90
21627;DHT22;10975;47.872;12.972;2022-08-21T10:26:13;23.00;99.90
21627;DHT22;10975;47.872;12.972;2022-08-21T10:36:32;23.40;99.90
21627;DHT22;10975;47.872;12.972;2022-08-21T10:39:07;23.60;99.90
21627;DHT22;10975;47.872;12.972;2022-08-21T10:47:38;23.20;99.90
21627;DHT22;10975;47.872;12.972;2022-08-21T10:55:18;23.00;99.90
21627;DHT22;10975;47.872;12.972;2022-08-21T10:57:47;22.80;99.90
21627;DHT22;10975;47.872;12.972;2022-08-21T11:00:17;23.10;99.90
21627;DHT22;10975;47.872;12.972;2022-08-21T11:05:31;23.30;99.90
21627;DHT22;10975;47.872;12.972;2022-08-21T11:10:43;23.00;99.90
21627;DHT22;10975;47.872;12.972;2022-08-21T11:16:02;22.70;99.90
21627;DHT22;10975;47.872;12.972;2022-08-21T11:18:32;22.60;99.90
21627;DHT22;10975;47.872;12.972;2022-08-21T11:21:06;22.70;99.90
21627;DHT22;10975;47.872;12.972;2022-08-21T11:23:42;23.00;99.90
21627;DHT22;10975;47.872;12.972;2022-08-21T11:26:15;23.30;99.90
21627;DHT22;10975;47.872;12.972;2022-08-21T11:28:46;23.50;99.90
21627;DHT22;10975;47.872;12.972;2022-08-21T11:34:04;23.70;99.90
21627;DHT22;10975;47.872;12.972;2022-08-21T11:41:40;23.40;99.90
21627;DHT22;10975;47.872;12.972;2022-08-21T11:44:11;23.10;99.90
21627;DHT22;10975;47.872;12.972;2022-08-21T11:46:44;23.10;99.90
21627;DHT22;10975;47.872;12.972;2022-08-21T11:51:51;23.40;99.90
21627;DHT22;10975;47.872;12.972;2022-08-21T11:54:33;23.70;99.90
21627;DHT22;10975;47.872;12.972;2022-08-21T11:57:05;24.00;99.90
21627;DHT22;10975;47.872;12.972;2022-08-21T11:59:39;24.30;99.90
21627;DHT22;10975;47.872;12.972;2022-08-21T12:02:14;24.50;99.90
21627;DHT22;10975;47.872;12.972;2022-08-21T12:04:46;24.50;99.90
21627;DHT22;10975;47.872;12.972;2022-08-21T12:07:16;24.50;99.90
21627;DHT22;10975;47.872;12.972;2022-08-21T12:09:53;24.60;99.90
21627;DHT22;10975;47.872;12.972;2022-08-21T12:17:37;24.10;99.90
21627;DHT22;10975;47.872;12.972;2022-08-21T12:22:50;23.80;99.90
21627;DHT22;10975;47.872;12.972;2022-08-21T12:25:19;23.90;99.90
21627;DHT22;10975;47.872;12.972;2022-08-21T12:27:49;24.10;99.90
21627;DHT22;10975;47.872;12.972;2022-08-21T12:33:00;23.80;99.90
21627;DHT22;10975;47.872;12.972;2022-08-21T12:35:31;23.20;99.90
21627;DHT22;10975;47.872;12.972;2022-08-21T12:40:28;22.80;99.90
21627;DHT22;10975;47.872;12.972;2022-08-21T12:42:57;22.70;99.90
21627;DHT22;10975;47.872;12.972;2022-08-21T12:45:42;22.70;99.90
21627;DHT22;10975;47.872;12.972;2022-08-21T12:48:11;22.70;99.90
21627;DHT22;10975;47.872;12.972;2022-08-21T12:50:50;22.70;99.90
21627;DHT22;10975;47.872;12.972;2022-08-21T12:53:23;22.70;99.90
21627;DHT22;10975;47.872;12.972;2022-08-21T12:55:51;22.70;99.90
21627;DHT22;10975;47.872;12.972;2022-08-21T12:58:19;22.70;99.90
21627;DHT22;10975;47.872;12.972;2022-08-21T13:00:47;22.70;99.90
21627;DHT22;10975;47.872;12.972;2022-08-21T13:03:15;22.90;99.90
21627;DHT22;10975;47.872;12.972;2022-08-21T13:05:42;23.10;99.90
21627;DHT22;10975;47.872;12.972;2022-08-21T13:08:10;23.10;99.90
21627;DHT22;10975;47.872;12.972;2022-08-21T13:10:37;23.10;99.90
21627;DHT22;10975;47.872;12.972;2022-08-21T13:13:06;23.40;99.90
21627;DHT22;10975;47.872;12.972;2022-08-21T13:15:39;23.30;99.90
21627;DHT22;10975;47.872;12.972;2022-08-21T13:18:19;23.10;99.90
21627;DHT22;10975;47.872;12.972;2022-08-21T13:20:48;23.10;99.90
21627;DHT22;10975;47.872;12.972;2022-08-21T13:23:20;23.30;99.90
21627;DHT22;10975;47.872;12.972;2022-08-21T13:25:47;23.50;99.90
21627;DHT22;10975;47.872;12.972;2022-08-21T13:28:13;23.70;99.90
21627;DHT22;10975;47.872;12.972;2022-08-21T13:30:42;23.80;99.90
21627;DHT22;10975;47.872;12.972;2022-08-21T13:33:10;24.00;99.90
21627;DHT22;10975;47.872;12.972;2022-08-21T13:38:25;24.20;99.90
21627;DHT22;10975;47.872;12.972;2022-08-21T13:41:02;24.40;99.90
21627;DHT22;10975;47.872;12.972;2022-08-21T13:43:34;24.50;99.90
21627;DHT22;10975;47.872;12.972;2022-08-21T13:46:02;24.50;99.90
21627;DHT22;10975;47.872;12.972;2022-08-21T13:48:33;24.40;99.90
21627;DHT22;10975;47.872;12.972;2022-08-21T13:51:00;24.20;99.90
21627;DHT22;10975;47.872;12.972;2022-08-21T13:53:33;24.20;99.90
21627;DHT22;10975;47.872;12.972;2022-08-21T13:56:00;24.20;99.90
21627;DHT22;10975;47.872;12.972;2022-08-21T14:00:54;24.50;99.90
21627;DHT22;10975;47.872;12.972;2022-08-21T14:03:31;24.60;99.90
21627;DHT22;10975;47.872;12.972;2022-08-21T14:05:59;24.80;99.90
21627;DHT22;10975;47.872;12.972;2022-08-21T14:08:32;24.90;99.90
21627;DHT22;10975;47.872;12.972;2022-08-21T14:11:00;24.90;99.90
21627;DHT22;10975;47.872;12.972;2022-08-21T14:13:34;25.00;99.90
21627;DHT22;10975;47.872;12.972;2022-08-21T14:16:10;25.00;99.90
21627;DHT22;10975;47.872;12.972;2022-08-21T14:18:48;24.90;99.90
21627;DHT22;10975;47.872;12.972;2022-08-21T14:21:23;24.70;99.90
21627;DHT22;10975;47.872;12.972;2022-08-21T14:23:59;24.50;99.90
21627;DHT22;10975;47.872;12.972;2022-08-21T14:26:25;24.60;99.90
21627;DHT22;10975;47.872;12.972;2022-08-21T14:28:52;24.50;99.90
21627;DHT22;10975;47.872;12.972;2022-08-21T14:31:28;24.50;99.90
21627;DHT22;10975;47.872;12.972;2022-08-21T14:33:56;24.60;99.90
21627;DHT22;10975;47.872;12.972;2022-08-21T14:36:22;24.70;99.90
21627;DHT22;10975;47.872;12.972;2022-08-21T14:38:49;24.60;99.90
21627;DHT22;10975;47.872;12.972;2022-08-21T14:41:18;24.50;99.90
21627;DHT22;10975;47.872;12.972;2022-08-21T14:43:45;24.60;99.90
21627;DHT22;10975;47.872;12.972;2022-08-21T14:46:24;24.80;99.90
21627;DHT22;10975;47.872;12.972;2022-08-21T14:48:51;24.90;99.90
21627;DHT22;10975;47.872;12.972;2022-08-21T14:51:18;24.90;99.90
21627;DHT22;10975;47.872;12.972;2022-08-21T14:53:45;25.00;99.90
21627;DHT22;10975;47.872;12.972;2022-08-21T14:56:13;25.10;99.90
21627;DHT22;10975;47.872;12.972;2022-08-21T14:58:42;25.10;99.90
21627;DHT22;10975;47.872;12.972;2022-08-21T15:01:11;25.00;99.90
21627;DHT22;10975;47.872;12.972;2022-08-21T15:03:38;25.10;99.90
21627;DHT22;10975;47.872;12.972;2022-08-21T15:06:06;25.10;99.90
21627;DHT22;10975;47.872;12.972;2022-08-21T15:08:33;25.10;99.90
21627;DHT22;10975;47.872;12.972;2022-08-21T15:11:00;25.10;99.90
21627;DHT22;10975;47.872;12.972;2022-08-21T15:13:48;25.10;99.90
21627;DHT22;10975;47.872;12.972;2022-08-21T15:16:19;25.20;99.90
21627;DHT22;10975;47.872;12.972;2022-08-21T15:18:46;25.10;99.90
21627;DHT22;10975;47.872;12.972;2022-08-21T15:21:13;25.00;99.90
21627;DHT22;10975;47.872;12.972;2022-08-21T15:23:39;24.90;99.90
21627;DHT22;10975;47.872;12.972;2022-08-21T15:26:09;24.90;99.90
21627;DHT22;10975;47.872;12.972;2022-08-21T15:28:36;25.10;99.90
21627;DHT22;10975;47.872;12.972;2022-08-21T15:31:04;25.30;99.90
21627;DHT22;10975;47.872;12.972;2022-08-21T15:33:31;25.40;99.90
21627;DHT22;10975;47.872;12.972;2022-08-21T15:35:58;25.60;99.90
21627;DHT22;10975;47.872;12.972;2022-08-21T15:38:25;25.70;99.90
21627;DHT22;10975;47.872;12.972;2022-08-21T15:40:51;25.60;99.90
21627;DHT22;10975;47.872;12.972;2022-08-21T15:43:23;25.70;99.90
21627;DHT22;10975;47.872;12.972;2022-08-21T15:45:57;25.60;99.90
21627;DHT22;10975;47.872;12.972;2022-08-21T15:48:24;25.60;99.90
21627;DHT22;10975;47.872;12.972;2022-08-21T15:50:51;25.50;99.90
21627;DHT22;10975;47.872;12.972;2022-08-21T15:53:18;25.40;99.90
21627;DHT22;10975;47.872;12.972;2022-08-21T15:55:45;25.30;99.90
21627;DHT22;10975;47.872;12.972;2022-08-21T15:58:12;25.30;99.90
21627;DHT22;10975;47.872;12.972;2022-08-21T16:00:40;25.40;99.90
21627;DHT22;10975;47.872;12.972;2022-08-21T16:03:11;25.40;99.90
21627;DHT22;10975;47.872;12.972;2022-08-21T16:05:40;25.30;99.90
21627;DHT22;10975;47.872;12.972;2022-08-21T16:08:07;25.30;99.90
21627;DHT22;10975;47.872;12.972;2022-08-21T16:10:33;25.10;99.90
21627;DHT22;10975;47.872;12.972;2022-08-21T16:13:02;25.00;99.90
21627;DHT22;10975;47.872;12.972;2022-08-21T16:15:29;24.90;99.90
21627;DHT22;10975;47.872;12.972;2022-08-21T16:17:56;24.70;99.90
21627;DHT22;10975;47.872;12.972;2022-08-21T16:20:24;24.40;99.90
21627;DHT22;10975;47.872;12.972;2022-08-21T16:22:52;24.30;99.90
21627;DHT22;10975;47.872;12.972;2022-08-21T16:25:20;24.10;99.90
21627;DHT22;10975;47.872;12.972;2022-08-21T16:27:49;24.20;99.90
21627;DHT22;10975;47.872;12.972;2022-08-21T16:30:18;24.50;99.90
21627;DHT22;10975;47.872;12.972;2022-08-21T16:32:45;24.50;99.90
21627;DHT22;10975;47.872;12.972;2022-08-21T16:35:14;24.70;99.90
21627;DHT22;10975;47.872;12.972;2022-08-21T16:37:41;25.00;99.90
21627;DHT22;10975;47.872;12.972;2022-08-21T16:40:08;25.40;99.90
21627;DHT22;10975;47.872;12.972;2022-08-21T16:42:36;25.40;99.90
21627;DHT22;10975;47.872;12.972;2022-08-21T16:45:11;25.20;99.90
21627;DHT22;10975;47.872;12.972;2022-08-21T16:47:39;25.20;99.90
21627;DHT22;10975;47.872;12.972;2022-08-21T16:50:06;25.20;99.90
21627;DHT22;10975;47.872;12.972;2022-08-21T16:52:33;25.10;99.90
21627;DHT22;10975;47.872;12.972;2022-08-21T16:55:00;25.00;99.90